Time;durP1;ratioP1;P1;durP2;ratioP2;P2;SDS_P1;SDS_P2;PMS_P1;PMS_P2;Temp;Humidity;BMP_temperature;BMP_pressure;BME280_temperature;BME280_humidity;BME280_pressure;Samples;Min_cycle;Max_cycle;Signal;HPM_P1;HPM_P2
2021/05/31 00:00:49;;;;;;;9.03;3.95;;;;;;;14.63;100.00;100822.14;1723703;82;21036;-91
2021/05/31 00:03:15;;;;;;;7.97;4.10;;;;;;;14.57;100.00;100821.91;1723702;82;21065;-89
2021/05/31 00:05:44;;;;;;;10.10;4.45;;;;;;;14.56;100.00;100822.17;1723572;83;21590;-89
2021/05/31 00:08:10;;;;;;;8.73;3.72;;;;;;;14.47;100.00;100821.41;1723613;83;21124;-89
2021/05/31 00:10:36;;;;;;;9.63;4.03;;;;;;;14.37;100.00;100828.77;1723667;83;21669;-91
2021/05/31 03:04:19;;;;;;;10.63;4.75;;;;;;;15.63;100.00;100850.63;1698050;82;20992;-87
2021/05/31 03:06:44;;;;;;;7.75;4.65;;;;;;;15.53;100.00;100851.27;1707836;83;21065;-88
2021/05/31 03:09:10;;;;;;;10.23;3.98;;;;;;;15.48;100.00;100850.78;1707846;83;20941;-88
2021/05/31 03:11:36;;;;;;;7.22;3.45;;;;;;;15.41;100.00;100838.91;1707989;84;20906;-86
2021/05/31 03:17:53;;;;;;;7.72;3.77;;;;;;;15.42;100.00;100838.36;1707958;84;21049;-87
2021/05/31 03:20:24;;;;;;;7.47;4.12;;;;;;;15.87;100.00;100852.59;1707832;84;21060;-87
2021/05/31 03:22:50;;;;;;;7.55;3.67;;;;;;;16.28;100.00;100843.39;1684209;85;21068;-88
2021/05/31 03:25:16;;;;;;;8.63;3.87;;;;;;;16.70;100.00;100849.88;1684407;85;21096;-87
2021/05/31 03:27:42;;;;;;;6.28;3.83;;;;;;;17.31;100.00;100851.43;1684275;85;21024;-88
2021/05/31 03:30:12;;;;;;;9.03;3.87;;;;;;;17.69;100.00;100860.28;1684491;85;21547;-87
2021/05/31 03:32:39;;;;;;;9.18;3.98;;;;;;;17.89;100.00;100854.48;1684469;85;21037;-87
2021/05/31 03:35:08;;;;;;;6.42;3.75;;;;;;;17.89;100.00;100860.50;1684391;85;21048;-88
2021/05/31 03:37:46;;;;;;;8.10;3.85;;;;;;;17.89;100.00;100867.31;1684339;85;21135;-87
2021/05/31 03:40:20;;;;;;;6.53;3.55;;;;;;;17.84;100.00;100866.03;1684159;85;21072;-89
2021/05/31 03:42:44;;;;;;;7.62;3.80;;;;;;;17.60;100.00;100863.45;1680760;85;21068;-88
2021/05/31 03:45:11;;;;;;;6.12;3.52;;;;;;;17.40;100.00;100856.44;1661173;85;21225;-87
2021/05/31 03:47:37;;;;;;;6.08;3.60;;;;;;;17.12;100.00;100852.81;1684498;85;21045;-87
2021/05/31 03:50:21;;;;;;;6.03;3.40;;;;;;;16.88;100.00;100849.64;1684409;85;21579;-87
2021/05/31 03:52:49;;;;;;;7.03;3.77;;;;;;;16.61;100.00;100857.65;1684267;85;21586;-87
2021/05/31 03:55:16;;;;;;;6.97;4.10;;;;;;;16.43;100.00;100857.89;1684438;85;22141;-87
2021/05/31 03:57:42;;;;;;;6.83;3.50;;;;;;;16.59;100.00;100860.68;1684650;85;21068;-87
2021/05/31 04:00:11;;;;;;;6.42;3.80;;;;;;;16.48;100.00;100861.36;1684368;85;20981;-87
2021/05/31 04:02:40;;;;;;;6.30;3.77;;;;;;;16.42;100.00;100872.61;1684254;85;21044;-85
2021/05/31 04:05:11;;;;;;;7.55;3.60;;;;;;;16.60;100.00;100875.89;1678263;85;21559;-88
2021/05/31 04:13:11;;;;;;;6.62;3.80;;;;;;;16.48;100.00;100862.72;1670346;85;21053;-87
2021/05/31 04:15:37;;;;;;;8.28;3.60;;;;;;;16.58;100.00;100868.56;1670329;85;20875;-87
2021/05/31 04:18:03;;;;;;;6.08;3.60;;;;;;;16.28;100.00;100868.42;1670415;85;20977;-88
2021/05/31 04:20:30;;;;;;;5.80;3.55;;;;;;;15.87;100.00;100868.34;1686048;84;21625;-87
2021/05/31 04:22:55;;;;;;;8.60;3.80;;;;;;;15.84;100.00;100873.55;1686082;85;21096;-87
2021/05/31 04:25:37;;;;;;;7.55;3.45;;;;;;;15.87;100.00;100877.86;1686236;85;20922;-87
2021/05/31 04:28:03;;;;;;;5.28;3.37;;;;;;;15.52;100.00;100876.27;1686153;83;21061;-88
2021/05/31 04:30:29;;;;;;;6.40;3.98;;;;;;;15.29;100.00;100879.73;1686238;83;21057;-89
2021/05/31 04:32:55;;;;;;;5.92;3.98;;;;;;;15.49;100.00;100882.83;1676616;85;21029;-88
2021/05/31 04:35:21;;;;;;;7.85;3.85;;;;;;;15.69;100.00;100885.39;1676631;85;20882;-87
2021/05/31 04:37:47;;;;;;;8.75;4.15;;;;;;;15.56;100.00;100884.66;1686309;83;21065;-88
2021/05/31 04:40:13;;;;;;;7.40;3.92;;;;;;;15.45;100.00;100888.83;1686188;85;21066;-89
2021/05/31 04:42:39;;;;;;;6.20;4.03;;;;;;;15.31;100.00;100900.08;1686206;85;21080;-90
2021/05/31 04:45:08;;;;;;;6.65;4.00;;;;;;;15.13;100.00;100897.51;1686239;83;21103;-89
2021/05/31 04:47:33;;;;;;;7.58;3.77;;;;;;;15.34;100.00;100908.21;1686399;85;21564;-93
2021/05/31 04:49:59;;;;;;;6.60;3.62;;;;;;;15.14;100.00;100905.10;1686251;83;20905;-90
2021/05/31 04:52:25;;;;;;;7.25;3.90;;;;;;;15.04;100.00;100897.84;1686309;85;21514;-90
2021/05/31 04:54:54;;;;;;;8.60;4.12;;;;;;;15.34;100.00;100899.52;1686299;83;20921;-90
2021/05/31 04:57:21;;;;;;;9.18;4.10;;;;;;;15.56;100.00;100895.52;1686108;85;21118;-89
2021/05/31 04:59:47;;;;;;;7.50;3.83;;;;;;;15.75;100.00;100896.47;1686147;85;21065;-90
2021/05/31 05:02:13;;;;;;;11.60;4.17;;;;;;;15.57;100.00;100897.16;1688727;83;21061;-88
2021/05/31 05:04:39;;;;;;;6.33;3.75;;;;;;;15.79;100.00;100896.14;1688284;83;20874;-89
2021/05/31 05:07:13;;;;;;;6.17;3.98;;;;;;;15.69;100.00;100897.61;1707953;84;21534;-88
2021/05/31 05:09:39;;;;;;;6.95;3.80;;;;;;;15.67;100.00;100894.33;1707810;84;21543;-89
2021/05/31 05:12:07;;;;;;;6.75;3.87;;;;;;;16.08;100.00;100895.30;1689740;84;21108;-92
2021/05/31 05:14:33;;;;;;;5.45;3.15;;;;;;;16.19;100.00;100894.64;1717224;83;21201;-91
2021/05/31 05:16:59;;;;;;;6.62;3.33;;;;;;;16.26;100.00;100893.17;1719450;83;20898;-91
2021/05/31 05:19:33;;;;;;;6.67;3.60;;;;;;;16.24;100.00;100895.40;1719241;83;21017;-92
2021/05/31 05:21:58;;;;;;;8.85;3.50;;;;;;;16.12;100.00;100890.92;1654635;86;21037;-93
2021/05/31 05:24:24;;;;;;;6.08;3.50;;;;;;;16.26;100.00;100878.77;1633448;86;20968;-90
2021/05/31 05:26:50;;;;;;;4.28;2.37;;;;;;;16.69;100.00;100881.49;1610938;86;21081;-91
2021/05/31 05:29:16;;;;;;;5.10;2.75;;;;;;;16.60;100.00;100879.98;1656402;86;21496;-94
2021/05/31 05:31:42;;;;;;;5.17;2.83;;;;;;;16.77;100.00;100878.95;1632432;86;20966;-90
2021/05/31 05:34:12;;;;;;;6.15;2.77;;;;;;;16.96;100.00;100879.48;1656363;86;21160;-92
2021/05/31 05:39:24;;;;;;;4.20;2.62;;;;;;;17.20;100.00;100871.20;1654498;86;21210;-90
2021/05/31 05:41:50;;;;;;;4.67;2.60;;;;;;;17.29;100.00;100876.78;1640780;86;21119;-88
2021/05/31 05:49:30;;;;;;;5.42;2.22;;;;;;;19.02;100.00;100868.45;1621057;86;21101;-87
2021/05/31 05:51:56;;;;;;;3.83;2.22;;;;;;;19.27;100.00;100871.13;1617571;88;20934;-87
2021/05/31 05:54:22;;;;;;;3.47;1.95;;;;;;;18.91;100.00;100878.80;1617690;88;20910;-87
2021/05/31 05:56:54;;;;;;;5.67;2.60;;;;;;;18.91;100.00;100880.16;1623796;86;20968;-87
2021/05/31 05:59:20;;;;;;;3.35;2.25;;;;;;;18.76;100.00;100881.88;1530532;92;21460;-87
2021/05/31 06:01:46;;;;;;;4.65;2.17;;;;;;;18.41;100.00;100887.53;1526763;93;21038;-88
2021/05/31 06:04:12;;;;;;;6.33;2.15;;;;;;;18.69;100.00;100882.28;1525727;93;21045;-88
2021/05/31 06:06:38;;;;;;;3.33;2.02;;;;;;;18.85;100.00;100878.66;1498138;93;20945;-87
2021/05/31 06:09:06;;;;;;;3.30;2.00;;;;;;;18.66;100.00;100878.00;1537500;93;21192;-88
2021/05/31 06:11:32;;;;;;;3.80;1.60;;;;;;;19.02;100.00;100875.28;1537972;93;21738;-87
2021/05/31 06:13:58;;;;;;;2.05;1.45;;;;;;;18.75;100.00;100874.82;1538145;93;21073;-87
2021/05/31 06:16:23;;;;;;;7.15;1.37;;;;;;;18.80;100.00;100872.78;1534824;93;20929;-87
2021/05/31 06:18:50;;;;;;;2.27;1.40;;;;;;;19.29;100.00;100871.61;1536841;91;21046;-87
2021/05/31 06:21:16;;;;;;;2.58;1.50;;;;;;;20.09;100.00;100875.27;1542007;93;21044;-88
2021/05/31 06:23:44;;;;;;;2.90;1.60;;;;;;;19.64;100.00;100878.09;1541736;93;21143;-87
2021/05/31 06:26:10;;;;;;;2.52;1.20;;;;;;;19.54;100.00;100874.83;1528278;93;21160;-87
2021/05/31 06:28:36;;;;;;;2.33;1.47;;;;;;;20.06;100.00;100872.34;1528458;93;20975;-86
2021/05/31 06:31:02;;;;;;;2.85;1.47;;;;;;;19.99;100.00;100881.02;1573280;89;20936;-88
2021/05/31 06:33:27;;;;;;;3.45;1.72;;;;;;;19.92;100.00;100887.52;1563872;89;20998;-87
2021/05/31 06:35:55;;;;;;;2.87;1.42;;;;;;;20.20;100.00;100885.34;1571594;89;21056;-89
2021/05/31 06:38:21;;;;;;;3.00;1.52;;;;;;;20.40;100.00;100886.69;1580444;90;21104;-88
2021/05/31 06:40:47;;;;;;;2.58;1.55;;;;;;;20.87;100.00;100886.38;1553883;90;21153;-88
2021/05/31 06:43:13;;;;;;;3.40;1.72;;;;;;;20.88;100.00;100887.17;1552415;92;21160;-87
2021/05/31 06:45:39;;;;;;;9.55;1.30;;;;;;;20.91;100.00;100882.41;1552355;92;20973;-88
2021/05/31 06:48:07;;;;;;;4.60;1.55;;;;;;;19.54;100.00;100893.97;1552456;92;21101;-87
2021/05/31 06:50:34;;;;;;;2.60;1.30;;;;;;;19.38;100.00;100876.56;1548793;92;21045;-87
2021/05/31 06:53:01;;;;;;;1.37;1.10;;;;;;;19.85;100.00;100878.94;1552291;92;21076;-87
2021/05/31 06:55:30;;;;;;;1.62;1.20;;;;;;;21.04;100.00;100875.17;1557026;90;21265;-87
2021/05/31 06:57:58;;;;;;;4.05;1.17;;;;;;;22.00;97.23;100882.06;1585888;89;21607;-86
2021/05/31 07:00:27;;;;;;;1.87;1.20;;;;;;;22.62;82.53;100876.48;1585650;90;21891;-87
2021/05/31 07:02:54;;;;;;;2.83;1.25;;;;;;;21.91;78.55;100884.04;1585509;89;21079;-87
2021/05/31 07:05:21;;;;;;;2.52;1.42;;;;;;;22.26;83.47;100881.13;1592682;87;21048;-87
2021/05/31 07:07:49;;;;;;;3.17;1.57;;;;;;;21.42;85.10;100883.54;1623183;88;21100;-88
2021/05/31 07:10:17;;;;;;;1.82;1.12;;;;;;;22.28;90.28;100885.73;1623224;88;21048;-87
2021/05/31 07:12:43;;;;;;;5.08;1.40;;;;;;;22.23;89.00;100880.42;1623054;88;21119;-87
2021/05/31 07:15:12;;;;;;;7.50;1.55;;;;;;;21.96;88.53;100874.80;1623172;88;21618;-88
2021/05/31 07:17:39;;;;;;;1.67;0.98;;;;;;;22.24;85.48;100871.07;1623192;88;21731;-87
2021/05/31 07:20:09;;;;;;;1.62;1.20;;;;;;;22.91;81.65;100865.16;1623173;88;21064;-88
2021/05/31 07:22:36;;;;;;;2.85;1.47;;;;;;;23.68;74.28;100865.55;1642055;85;21630;-88
2021/05/31 07:25:04;;;;;;;4.12;1.67;;;;;;;23.45;70.09;100872.61;1686616;85;21055;-87
2021/05/31 07:27:30;;;;;;;2.25;1.57;;;;;;;23.15;66.48;100873.30;1686436;84;21091;-87
2021/05/31 07:29:56;;;;;;;2.40;1.10;;;;;;;22.82;70.04;100872.67;1686581;85;21072;-87
2021/05/31 07:32:22;;;;;;;1.90;1.20;;;;;;;21.90;79.86;100867.31;1682254;84;21122;-88
2021/05/31 07:34:48;;;;;;;1.57;1.32;;;;;;;21.72;74.65;100868.53;1686547;85;20917;-87
2021/05/31 07:37:14;;;;;;;1.90;1.30;;;;;;;21.48;86.40;100867.72;1686512;85;21142;-88
2021/05/31 07:39:40;;;;;;;4.12;1.57;;;;;;;21.07;79.80;100877.27;1686386;85;21111;-87
2021/05/31 07:42:07;;;;;;;1.77;1.50;;;;;;;21.41;78.58;100873.69;1686391;85;21880;-87
2021/05/31 07:44:33;;;;;;;2.17;1.40;;;;;;;22.37;77.71;100878.81;1686420;85;21579;-86
2021/05/31 07:46:59;;;;;;;3.42;1.20;;;;;;;22.35;67.09;100878.34;1686585;84;20881;-87
2021/05/31 07:49:26;;;;;;;2.20;1.22;;;;;;;21.86;64.89;100874.61;1682294;84;21150;-88
2021/05/31 07:51:54;;;;;;;2.12;1.12;;;;;;;21.81;67.60;100867.13;1686476;84;21056;-87
2021/05/31 07:54:21;;;;;;;1.57;1.37;;;;;;;22.42;69.00;100873.94;1686234;84;21063;-87
2021/05/31 07:56:47;;;;;;;1.47;1.25;;;;;;;22.94;71.07;100869.17;1686430;85;21135;-88
2021/05/31 07:59:13;;;;;;;2.50;1.42;;;;;;;22.45;68.19;100879.34;1686535;85;21009;-88
2021/05/31 08:01:39;;;;;;;1.45;1.35;;;;;;;23.98;67.04;100868.92;1685764;84;21056;-87
2021/05/31 08:04:08;;;;;;;2.08;1.50;;;;;;;24.81;65.38;100875.61;1686422;85;21542;-87
2021/05/31 08:06:36;;;;;;;1.52;1.42;;;;;;;24.68;59.53;100879.78;1684159;84;21096;-87
2021/05/31 08:09:07;;;;;;;1.65;1.30;;;;;;;25.23;54.98;100877.41;1681677;85;21093;-87
2021/05/31 08:11:33;;;;;;;1.40;1.30;;;;;;;25.29;52.39;100866.92;1681854;84;21116;-88
2021/05/31 08:14:00;;;;;;;2.58;1.50;;;;;;;25.28;53.57;100867.50;1681844;85;21040;-87
2021/05/31 08:16:26;;;;;;;2.22;1.35;;;;;;;26.90;49.06;100875.72;1687675;84;21500;-87
2021/05/31 08:18:58;;;;;;;4.58;1.32;;;;;;;27.95;49.35;100873.73;1681907;85;20909;-87
2021/05/31 08:21:24;;;;;;;1.90;1.80;;;;;;;27.86;49.22;100882.89;1673919;83;21054;-89
2021/05/31 08:23:50;;;;;;;4.25;1.67;;;;;;;28.20;48.03;100882.41;1675327;83;21652;-88
2021/05/31 08:26:22;;;;;;;3.52;1.60;;;;;;;27.91;45.12;100885.32;1700765;84;21141;-89
2021/05/31 08:28:48;;;;;;;2.15;1.60;;;;;;;27.90;47.55;100890.66;1700780;84;21066;-87
2021/05/31 08:31:15;;;;;;;2.33;1.50;;;;;;;27.80;46.02;100884.37;1700680;84;21041;-87
2021/05/31 08:33:41;;;;;;;3.00;1.65;;;;;;;27.23;46.46;100887.45;1700783;84;21090;-87
2021/05/31 08:36:07;;;;;;;2.70;1.50;;;;;;;25.52;47.07;100873.45;1700605;84;20971;-88
2021/05/31 08:38:33;;;;;;;2.08;1.52;;;;;;;25.60;50.30;100875.83;1700686;84;21782;-88
2021/05/31 08:41:01;;;;;;;3.80;1.45;;;;;;;24.62;52.29;100879.80;1700588;84;21037;-87
2021/05/31 08:43:27;;;;;;;2.52;1.60;;;;;;;22.31;61.10;100886.44;1704988;83;20977;-89
2021/05/31 08:45:54;;;;;;;2.52;1.75;;;;;;;21.53;65.11;100879.86;1666135;84;21070;-89
2021/05/31 08:48:23;;;;;;;5.72;1.80;;;;;;;21.07;68.58;100879.44;1689977;83;21593;-88
2021/05/31 08:50:52;;;;;;;2.58;1.60;;;;;;;21.60;67.95;100874.70;1694414;83;21153;-89
2021/05/31 08:53:20;;;;;;;2.92;1.60;;;;;;;22.43;68.13;100876.11;1683222;83;21079;-88
2021/05/31 08:55:47;;;;;;;3.83;1.70;;;;;;;22.80;62.62;100873.59;1696801;84;21514;-89
2021/05/31 08:58:14;;;;;;;2.08;1.57;;;;;;;24.30;60.73;100869.14;1689165;84;21033;-89
2021/05/31 09:00:40;;;;;;;1.35;1.20;;;;;;;25.21;57.59;100865.94;1667993;84;21045;-88
2021/05/31 09:03:09;;;;;;;1.98;1.50;;;;;;;26.47;54.75;100865.13;1699165;83;21195;-88
2021/05/31 09:05:44;;;;;;;4.20;1.42;;;;;;;24.73;54.42;100871.03;1700288;84;21062;-89
2021/05/31 09:08:20;;;;;;;2.75;1.50;;;;;;;24.25;55.24;100872.13;1712345;83;21044;-88
2021/05/31 09:10:55;;;;;;;1.67;1.40;;;;;;;24.29;55.60;100869.48;1652502;85;21256;-89
2021/05/31 09:13:54;;;;;;;1.80;1.37;;;;;;;24.62;53.87;100878.42;1569977;89;21107;-88
2021/05/31 09:16:28;;;;;;;4.50;1.50;;;;;;;23.37;55.45;100877.63;1542036;91;21832;-88
2021/05/31 09:18:58;;;;;;;2.37;1.55;;;;;;;24.59;55.58;100872.78;1572806;91;21582;-89
2021/05/31 09:21:43;;;;;;;1.50;1.40;;;;;;;25.32;54.36;100871.73;1594691;89;21073;-89
2021/05/31 09:24:24;;;;;;;1.65;1.40;;;;;;;25.76;51.62;100866.95;1599182;89;21127;-91
2021/05/31 09:26:59;;;;;;;2.33;1.65;;;;;;;26.81;52.04;100863.28;1599268;89;21370;-89
2021/05/31 09:29:25;;;;;;;1.55;1.45;;;;;;;27.61;47.71;100859.67;1599281;89;21072;-90
2021/05/31 09:32:09;;;;;;;2.77;1.32;;;;;;;26.90;47.42;100863.27;1579090;89;21587;-89
2021/05/31 09:34:44;;;;;;;1.92;1.30;;;;;;;25.73;48.76;100861.36;1590016;89;21706;-90
2021/05/31 09:37:10;;;;;;;1.85;1.52;;;;;;;24.71;52.84;100864.50;1592835;90;21987;-89
2021/05/31 09:39:41;;;;;;;1.77;1.55;;;;;;;23.86;51.42;100868.13;1593240;90;21008;-89
2021/05/31 09:42:16;;;;;;;1.87;1.40;;;;;;;24.20;54.90;100855.25;1592898;90;21939;-89
2021/05/31 09:44:45;;;;;;;2.05;1.32;;;;;;;25.22;53.09;100856.50;1592838;90;21091;-88
2021/05/31 09:47:13;;;;;;;1.95;1.32;;;;;;;24.33;49.47;100860.19;1593063;88;21095;-87
2021/05/31 09:49:40;;;;;;;2.05;1.30;;;;;;;24.60;50.25;100860.63;1588455;86;21914;-85
2021/05/31 09:52:12;;;;;;;1.27;1.10;;;;;;;22.76;53.98;100863.82;1652476;85;21076;-84
2021/05/31 09:54:51;;;;;;;2.92;1.60;;;;;;;23.43;57.85;100853.69;1577350;89;21998;-86
2021/05/31 09:57:24;;;;;;;3.17;1.50;;;;;;;23.43;57.85;100853.69;1588097;90;21062;-86
2021/05/31 10:00:04;;;;;;;2.20;1.40;;;;;;;23.57;55.09;100853.38;1541520;93;21100;-90
2021/05/31 10:08:15;;;;;;;3.33;1.40;;;;;;;25.95;52.56;100849.72;1459030;97;21225;-91
2021/05/31 10:10:31;;;;;;;2.30;1.47;;;;;;;26.04;48.37;100854.47;1466156;95;21122;-89
2021/05/31 10:13:00;;;;;;;2.72;1.10;;;;;;;25.24;50.05;100850.06;1477542;97;21126;-90
2021/05/31 10:15:30;;;;;;;2.00;1.25;;;;;;;25.65;51.13;100844.38;1477694;96;21223;-88
2021/05/31 10:18:13;;;;;;;4.08;1.20;;;;;;;26.09;49.63;100846.50;1477370;96;21118;-91
2021/05/31 10:20:40;;;;;;;2.05;1.20;;;;;;;26.08;48.59;100842.70;1455867;98;21207;-92
2021/05/31 10:23:09;;;;;;;5.20;1.10;;;;;;;25.74;50.21;100845.83;1432996;98;21737;-89
2021/05/31 10:25:40;;;;;;;1.52;1.15;;;;;;;25.52;50.17;100847.81;1445523;98;21190;-88
2021/05/31 10:28:34;;;;;;;1.20;1.10;;;;;;;25.20;50.73;100849.73;1471239;97;21642;-88
2021/05/31 10:31:06;;;;;;;3.90;1.30;;;;;;;24.12;52.42;100847.11;1471892;96;21111;-89
2021/05/31 10:33:41;;;;;;;3.02;1.12;;;;;;;24.32;53.63;100843.41;1470858;97;21188;-89
2021/05/31 10:36:17;;;;;;;2.87;1.10;;;;;;;23.69;51.14;100842.38;1470106;97;21169;-89
2021/05/31 10:38:47;;;;;;;4.10;1.52;;;;;;;22.70;56.78;100856.12;1463637;94;21114;-90
2021/05/31 10:41:21;;;;;;;4.15;1.20;;;;;;;22.82;58.87;100842.44;1512841;94;47575;-88
2021/05/31 10:43:51;;;;;;;1.22;0.93;;;;;;;23.45;56.41;100845.11;1501538;95;21632;-89
2021/05/31 10:46:21;;;;;;;4.53;1.40;;;;;;;23.25;55.31;100844.81;1448043;98;22020;-90
2021/05/31 10:48:51;;;;;;;3.72;1.10;;;;;;;22.44;57.01;100843.37;1447937;99;21702;-88
2021/05/31 10:51:28;;;;;;;3.67;1.35;;;;;;;22.84;56.39;100843.72;1430825;98;21106;-87
2021/05/31 10:53:55;;;;;;;20.10;11.05;;;;;;;22.07;60.25;100849.97;1481822;95;22053;-89
2021/05/31 10:56:25;;;;;;;15.03;8.43;;;;;;;21.88;63.26;100842.70;1499744;94;21059;-88
2021/05/31 10:58:55;;;;;;;2.67;1.80;;;;;;;21.65;62.75;100841.61;1502769;94;21152;-88
2021/05/31 11:01:37;;;;;;;2.77;1.70;;;;;;;20.92;65.40;100840.20;1502196;92;21146;-89
2021/05/31 11:04:22;;;;;;;3.25;1.50;;;;;;;21.20;68.60;100840.64;1510935;92;21089;-88
2021/05/31 11:06:55;;;;;;;3.58;1.70;;;;;;;20.56;71.35;100836.41;1521980;92;21370;-88
2021/05/31 11:09:33;;;;;;;1.57;1.10;;;;;;;20.90;71.78;100843.03;1497406;95;21145;-86
2021/05/31 11:12:03;;;;;;;1.45;1.35;;;;;;;20.36;73.83;100838.62;1494890;95;21213;-87
2021/05/31 11:14:44;;;;;;;1.27;1.17;;;;;;;20.48;79.16;100838.56;1497695;93;21610;-87
2021/05/31 11:17:18;;;;;;;1.60;1.40;;;;;;;20.27;78.07;100841.91;1434820;100;21635;-88
2021/05/31 11:19:50;;;;;;;1.60;1.17;;;;;;;20.68;73.35;100839.88;1405131;102;21198;-87
2021/05/31 11:22:26;;;;;;;2.15;1.47;;;;;;;20.95;73.08;100836.02;1435294;100;21035;-89
2021/05/31 11:25:01;;;;;;;1.87;1.10;;;;;;;21.21;71.42;100835.98;1405757;102;21125;-87
2021/05/31 11:27:34;;;;;;;2.22;1.05;;;;;;;21.46;71.33;100828.84;1416050;101;21118;-89
2021/05/31 11:30:04;;;;;;;1.98;0.93;;;;;;;21.25;69.88;100825.97;1407719;101;21187;-88
2021/05/31 11:32:30;;;;;;;3.15;1.17;;;;;;;21.63;69.20;100827.41;1395649;102;21134;-88
2021/05/31 11:35:00;;;;;;;3.42;1.30;;;;;;;20.54;72.15;100826.36;1398622;102;21248;-87
2021/05/31 11:37:29;;;;;;;3.65;1.35;;;;;;;20.58;75.95;100823.20;1399264;102;21703;-86
2021/05/31 11:39:56;;;;;;;3.72;1.40;;;;;;;20.53;74.54;100821.45;1407666;100;21223;-86
2021/05/31 11:42:23;;;;;;;4.03;1.27;;;;;;;20.96;83.56;100823.92;1404643;100;21241;-87
2021/05/31 11:44:57;;;;;;;1.52;1.27;;;;;;;20.93;75.82;100816.35;1441189;99;21137;-87
2021/05/31 11:47:30;;;;;;;1.50;1.20;;;;;;;21.05;74.52;100818.66;1464546;98;21187;-87
2021/05/31 11:49:59;;;;;;;4.03;1.30;;;;;;;21.02;74.43;100808.34;1436355;97;21234;-87
2021/05/31 11:52:27;;;;;;;2.52;0.80;;;;;;;20.87;74.87;100819.81;1460993;98;21642;-88
2021/05/31 11:54:54;;;;;;;2.15;1.07;;;;;;;20.75;74.04;100814.99;1461572;98;21136;-86
2021/05/31 11:57:23;;;;;;;3.60;1.15;;;;;;;20.91;76.77;100821.34;1461535;98;21121;-87
2021/05/31 11:59:53;;;;;;;1.60;1.05;;;;;;;20.61;78.92;100817.08;1467174;96;21120;-90
2021/05/31 12:02:24;;;;;;;1.30;1.20;;;;;;;20.47;80.37;100814.48;1415397;100;21908;-87
2021/05/31 12:04:52;;;;;;;2.20;1.10;;;;;;;20.17;81.36;100823.04;1415482;101;21110;-89
2021/05/31 12:07:23;;;;;;;0.90;0.90;;;;;;;20.06;83.57;100817.08;1443085;96;21079;-86
2021/05/31 12:09:50;;;;;;;5.17;1.32;;;;;;;20.31;84.64;100811.97;1459300;95;21176;-86
2021/05/31 12:12:19;;;;;;;0.82;0.80;;;;;;;20.17;84.04;100818.94;1490092;94;21154;-88
2021/05/31 12:14:52;;;;;;;1.17;0.93;;;;;;;19.80;83.19;100814.83;1485013;95;21147;-87
2021/05/31 12:17:21;;;;;;;1.47;0.98;;;;;;;20.23;81.22;100810.81;1497127;95;21630;-87
2021/05/31 12:19:50;;;;;;;1.30;0.90;;;;;;;20.03;80.81;100815.52;1493291;94;21181;-87
2021/05/31 12:22:19;;;;;;;3.62;0.90;;;;;;;19.75;82.50;100828.07;1493820;94;21122;-88
2021/05/31 12:24:51;;;;;;;1.22;1.10;;;;;;;19.83;81.08;100818.30;1518678;92;21141;-90
2021/05/31 12:27:33;;;;;;;2.30;1.33;;;;;;;20.29;80.22;100808.73;1525544;94;21153;-88
2021/05/31 12:30:00;;;;;;;2.90;0.90;;;;;;;20.10;82.69;100813.94;1527949;92;21124;-89
2021/05/31 12:32:28;;;;;;;5.05;1.12;;;;;;;19.93;83.96;100805.69;1501676;95;21115;-88
2021/05/31 12:34:56;;;;;;;1.55;1.27;;;;;;;19.93;81.60;100809.78;1501438;95;21144;-88
2021/05/31 12:37:32;;;;;;;1.07;0.90;;;;;;;20.06;83.13;100804.77;1515904;93;21125;-88
2021/05/31 12:40:06;;;;;;;4.72;0.90;;;;;;;20.51;81.21;100807.23;1527131;92;21848;-87
2021/05/31 12:42:34;;;;;;;1.85;0.75;;;;;;;20.32;78.22;100811.62;1497804;95;21712;-87
2021/05/31 12:45:08;;;;;;;0.80;0.80;;;;;;;20.17;81.05;100807.98;1506210;95;21357;-88
2021/05/31 12:47:37;;;;;;;1.30;0.93;;;;;;;20.33;81.28;100806.41;1537652;91;21593;-87
2021/05/31 12:50:08;;;;;;;2.62;0.90;;;;;;;20.19;79.89;100810.65;1535343;92;21104;-86
2021/05/31 12:52:39;;;;;;;0.85;0.80;;;;;;;19.74;86.41;100802.66;1540197;92;21183;-87
2021/05/31 12:55:16;;;;;;;1.85;0.78;;;;;;;20.03;82.46;100797.73;1558345;92;21086;-87
2021/05/31 12:57:47;;;;;;;1.05;0.72;;;;;;;19.93;78.75;100793.37;1558505;92;21126;-85
2021/05/31 13:00:24;;;;;;;1.40;1.00;;;;;;;19.87;82.24;100796.81;1594961;89;21135;-87
2021/05/31 13:02:53;;;;;;;2.80;0.95;;;;;;;19.97;81.46;100799.81;1594321;89;21243;-87
2021/05/31 13:05:25;;;;;;;3.67;1.10;;;;;;;20.06;79.49;100792.45;1606280;89;21094;-87
2021/05/31 13:07:58;;;;;;;1.65;0.85;;;;;;;20.00;86.16;100786.89;1611824;88;21623;-87
2021/05/31 13:10:30;;;;;;;1.82;0.93;;;;;;;19.69;84.01;100793.22;1612309;89;21293;-84
2021/05/31 13:13:05;;;;;;;1.32;0.93;;;;;;;19.50;88.06;100792.08;1612310;89;21118;-84
2021/05/31 13:15:59;;;;;;;8.25;0.82;;;;;;;19.53;91.12;100789.28;1612178;89;21088;-87
2021/05/31 13:18:27;;;;;;;;;;;;;;;19.42;87.03;100794.77;1614433;89;21157;-85
2021/05/31 13:21:12;;;;;;;2.60;0.82;;;;;;;19.32;84.87;100788.20;1612033;89;20285;-84
2021/05/31 13:23:39;;;;;;;2.42;1.10;;;;;;;19.09;90.15;100791.52;1611944;89;21089;-85
2021/05/31 13:26:24;;;;;;;4.78;1.10;;;;;;;19.37;89.55;100794.90;1603578;88;21124;-84
2021/05/31 13:28:56;;;;;;;2.42;0.95;;;;;;;19.57;90.80;100787.52;1594996;89;21174;-87
2021/05/31 13:31:21;;;;;;;2.43;0.87;;;;;;;19.87;85.09;100789.17;1591750;88;21795;-85
2021/05/31 13:33:53;;;;;;;1.22;0.80;;;;;;;19.90;84.97;100792.08;1595424;89;20936;-85
2021/05/31 13:36:27;;;;;;;3.55;1.07;;;;;;;19.66;83.17;100790.31;1595552;89;21126;-86
2021/05/31 13:39:13;;;;;;;2.35;0.90;;;;;;;19.22;82.90;100798.84;1621149;85;21105;-85
2021/05/31 13:41:43;;;;;;;2.02;1.10;;;;;;;19.35;88.53;100797.93;1671746;84;21081;-87
2021/05/31 13:44:18;;;;;;;1.70;1.27;;;;;;;19.42;86.42;100798.30;1669316;85;21061;-82
2021/05/31 13:46:46;;;;;;;1.67;1.05;;;;;;;19.31;83.16;100796.95;1662214;84;21133;-82
2021/05/31 13:49:15;;;;;;;1.45;0.90;;;;;;;19.16;87.04;100796.80;1666503;85;21042;-81
2021/05/31 13:51:50;;;;;;;1.17;1.00;;;;;;;19.14;83.46;100796.86;1669384;85;21612;-81
2021/05/31 13:54:18;;;;;;;6.05;1.30;;;;;;;19.34;89.72;100797.70;1672177;85;21089;-81
2021/05/31 13:56:44;;;;;;;3.33;1.20;;;;;;;19.27;87.12;100795.98;1668414;84;21058;-82
2021/05/31 13:59:11;;;;;;;3.47;1.22;;;;;;;19.09;88.73;100802.44;1657271;85;21203;-82
2021/05/31 14:01:37;;;;;;;1.52;1.37;;;;;;;19.01;88.26;100803.45;1656112;85;20978;-83
2021/05/31 14:04:04;;;;;;;5.53;1.40;;;;;;;18.90;88.94;100805.38;1655985;86;21065;-82
2021/05/31 14:06:30;;;;;;;4.87;1.67;;;;;;;18.65;91.21;100802.13;1635490;84;21129;-82
2021/05/31 14:08:59;;;;;;;6.15;1.67;;;;;;;18.98;93.26;100801.34;1644342;85;21696;-81
2021/05/31 14:11:24;;;;;;;2.83;1.30;;;;;;;19.14;93.45;100801.75;1642168;87;21070;-83
2021/05/31 14:13:49;;;;;;;4.28;2.12;;;;;;;19.35;89.35;100798.50;1656087;85;21541;-82
2021/05/31 14:16:15;;;;;;;3.90;2.08;;;;;;;19.21;89.55;100800.77;1672277;85;20872;-84
2021/05/31 14:18:42;;;;;;;2.67;1.85;;;;;;;19.14;87.20;100809.16;1673292;84;21517;-84
2021/05/31 14:21:09;;;;;;;2.05;1.60;;;;;;;18.94;88.67;100810.46;1676512;85;21839;-83
2021/05/31 14:23:35;;;;;;;4.00;1.40;;;;;;;18.81;90.76;100802.02;1675206;84;21086;-84
2021/05/31 14:26:01;;;;;;;3.05;1.70;;;;;;;18.84;91.89;100800.60;1655385;85;21600;-84
2021/05/31 14:28:27;;;;;;;3.40;1.45;;;;;;;18.90;92.35;100810.28;1643760;87;20938;-84
2021/05/31 14:30:53;;;;;;;4.40;1.60;;;;;;;19.09;93.01;100805.17;1643492;86;20998;-84
2021/05/31 14:33:18;;;;;;;3.15;1.70;;;;;;;18.67;89.54;100805.33;1648943;84;21895;-84
2021/05/31 14:35:45;;;;;;;2.35;1.45;;;;;;;18.58;94.19;100819.47;1648237;85;20939;-85
2021/05/31 14:38:11;;;;;;;2.95;1.55;;;;;;;18.58;94.45;100823.00;1643874;84;21024;-83
2021/05/31 14:40:37;;;;;;;1.70;1.15;;;;;;;18.47;96.92;100824.91;1643509;86;21589;-84
2021/05/31 14:43:04;;;;;;;3.27;1.50;;;;;;;18.11;100.00;100833.86;1643609;87;21066;-84
2021/05/31 14:45:33;;;;;;;2.72;1.60;;;;;;;18.13;100.00;100833.81;1643561;87;21090;-85